createdAt,value
2023-02-11T00:01:51.532Z,73622.03
2023-02-11T00:04:18.156Z,73622.03
2023-02-11T00:06:44.807Z,73622.03
2023-02-11T00:09:11.538Z,73622.03
2023-02-11T00:11:38.168Z,73622.03
2023-02-11T00:14:08.404Z,73622.03
2023-02-11T00:16:35.080Z,73622.03
2023-02-11T00:19:03.319Z,73622.03
2023-02-11T00:21:30.291Z,73622.03
2023-02-11T00:24:00.255Z,73622.03
2023-02-11T00:26:30.029Z,73622.03
2023-02-11T00:28:57.261Z,73622.03
2023-02-11T00:31:24.904Z,103308.84
2023-02-11T00:33:52.029Z,103293.00
2023-02-11T00:36:21.757Z,103306.97
2023-02-11T00:38:50.002Z,103307.78
2023-02-11T00:41:17.277Z,103304.25
2023-02-11T00:43:44.223Z,103289.97
2023-02-11T00:46:11.588Z,103304.50
2023-02-11T00:48:38.242Z,103316.53
2023-02-11T00:51:05.353Z,103287.03
2023-02-11T00:53:33.799Z,103318.75
2023-02-11T00:56:01.236Z,103313.28
2023-02-11T00:58:28.830Z,103311.59
2023-02-11T01:00:55.959Z,103296.88
2023-02-11T01:03:22.565Z,103321.47
2023-02-11T01:05:49.429Z,103310.22
2023-02-11T01:08:16.247Z,103306.91
2023-02-11T01:10:44.010Z,103306.72
2023-02-11T01:13:10.873Z,103301.47
2023-02-11T01:15:37.594Z,103295.13
2023-02-11T01:18:05.808Z,103307.22
2023-02-11T01:20:32.424Z,103309.72
2023-02-11T01:22:58.959Z,103314.91
2023-02-11T01:25:25.620Z,103312.78
2023-02-11T01:27:52.129Z,103302.31
2023-02-11T01:30:18.811Z,103302.03
2023-02-11T01:32:45.355Z,103309.47
2023-02-11T01:35:11.904Z,103316.53
2023-02-11T01:37:38.616Z,103321.25
2023-02-11T01:40:11.285Z,103325.31
2023-02-11T01:42:37.984Z,103325.31
2023-02-11T01:45:42.031Z,103321.47
2023-02-11T01:48:13.206Z,103319.81
2023-02-11T01:50:43.064Z,103317.63
2023-02-11T01:53:29.644Z,103324.19
2023-02-11T01:56:15.919Z,103301.75
2023-02-11T01:58:45.830Z,103296.25
2023-02-11T02:01:18.146Z,103293.75
2023-02-11T02:03:48.453Z,103286.91
2023-02-11T02:06:26.848Z,103299.50
2023-02-11T02:09:00.911Z,103311.84
2023-02-11T02:11:27.644Z,103312.47
2023-02-11T02:13:54.354Z,103310.53
2023-02-11T02:16:26.394Z,103293.75
2023-02-11T02:19:11.491Z,103289.41
2023-02-11T02:22:05.822Z,103301.41
2023-02-11T02:24:56.803Z,103308.63
2023-02-11T02:27:45.374Z,103294.88
2023-02-11T02:30:41.403Z,103302.03
2023-02-11T02:33:23.125Z,103289.16
2023-02-11T02:36:11.433Z,103304.22
2023-02-11T02:38:40.913Z,103308.28
2023-02-11T02:41:11.347Z,103310.53
2023-02-11T02:43:41.719Z,103305.06
2023-02-11T02:46:29.180Z,103308.28
2023-02-11T02:48:57.523Z,103293.81
2023-02-11T02:51:42.461Z,103297.31
2023-02-11T02:54:29.392Z,103300.13
2023-02-11T02:57:30.915Z,103309.41
2023-02-11T03:00:28.489Z,103317.09
2023-02-11T03:03:43.280Z,103316.53
2023-02-11T03:06:25.582Z,103308.28
2023-02-11T03:09:12.687Z,103307.28
2023-02-11T03:11:40.424Z,103297.63
2023-02-11T03:14:11.215Z,103300.69
2023-02-11T03:16:39.616Z,103293.03
2023-02-11T03:19:28.847Z,103303.50
2023-02-11T03:21:57.462Z,103305.13
2023-02-11T03:24:30.632Z,103305.69
2023-02-11T03:27:04.971Z,103310.34
2023-02-11T03:29:35.156Z,103300.75
2023-02-11T03:32:17.652Z,103285.16
2023-02-11T03:34:54.889Z,103287.09
2023-02-11T03:37:32.733Z,103288.22
2023-02-11T03:40:11.428Z,103299.75
2023-02-11T03:42:53.512Z,103298.63
2023-02-11T03:45:23.892Z,103301.06
2023-02-11T03:48:00.557Z,103295.63
2023-02-11T03:50:30.265Z,103305.00
2023-02-11T03:52:59.393Z,103312.09
2023-02-11T03:55:28.155Z,103315.09
2023-02-11T03:57:54.985Z,103318.59
2023-02-11T04:00:21.907Z,103300.56
2023-02-11T04:02:49.069Z,103295.34
2023-02-11T04:05:16.479Z,103294.81
2023-02-11T04:07:43.108Z,103288.28
2023-02-11T04:10:11.165Z,103301.38
2023-02-11T04:12:37.867Z,103306.03
2023-02-11T04:15:05.371Z,103307.69
2023-02-11T04:17:32.149Z,103311.56
2023-02-11T04:19:58.855Z,103303.56
2023-02-11T04:22:25.650Z,103304.44
2023-02-11T04:24:52.233Z,103294.25
2023-02-11T04:27:19.097Z,103283.88
2023-02-11T04:29:45.848Z,103290.44
2023-02-11T04:32:12.756Z,103297.84
2023-02-11T04:34:39.831Z,103291.00
2023-02-11T04:37:07.112Z,103289.66
2023-02-11T04:39:34.545Z,103296.53
2023-02-11T04:42:01.368Z,103293.78
2023-02-11T04:44:28.090Z,103291.34
2023-02-11T04:46:54.753Z,103290.53
2023-02-11T04:49:21.382Z,103293.31
2023-02-11T04:51:49.523Z,103293.81
2023-02-11T04:54:16.662Z,103292.25
2023-02-11T04:56:43.350Z,103303.72
2023-02-11T04:59:10.193Z,103306.97
2023-02-11T05:01:36.891Z,103297.69
2023-02-11T05:04:03.875Z,103285.03
2023-02-11T05:06:30.630Z,103299.88
2023-02-11T05:08:57.946Z,103290.00
2023-02-11T05:11:25.966Z,103291.34
2023-02-11T05:13:52.862Z,103281.75
2023-02-11T05:16:19.747Z,103286.41
2023-02-11T05:18:46.543Z,103284.25
2023-02-11T05:21:16.575Z,103297.38
2023-02-11T05:23:43.940Z,103299.06
2023-02-11T05:26:11.610Z,103300.41
2023-02-11T05:28:39.043Z,103306.22
2023-02-11T05:31:06.223Z,103290.66
2023-02-11T05:33:33.409Z,103303.47
2023-02-11T05:36:08.645Z,103301.84
2023-02-11T05:38:36.646Z,103306.25
2023-02-11T05:41:04.942Z,103293.91
2023-02-11T05:43:31.899Z,103310.91
2023-02-11T05:45:58.768Z,103321.06
2023-02-11T05:48:25.445Z,103320.53
2023-02-11T05:50:52.610Z,103312.88
2023-02-11T05:53:22.595Z,103316.44
2023-02-11T05:55:50.023Z,103305.47
2023-02-11T05:58:16.939Z,103312.03
2023-02-11T06:00:43.642Z,103315.88
2023-02-11T06:03:10.303Z,103318.03
2023-02-11T06:05:36.997Z,103321.03
2023-02-11T06:08:03.983Z,103321.84
2023-02-11T06:10:30.709Z,103316.38
2023-02-11T06:12:57.307Z,103313.06
2023-02-11T06:15:23.959Z,103308.69
2023-02-11T06:17:50.805Z,103289.50
2023-02-11T06:20:17.689Z,103298.53
2023-02-11T06:22:44.427Z,103291.41
2023-02-11T06:25:11.301Z,103293.56
2023-02-11T06:27:38.972Z,103291.13
2023-02-11T06:30:07.362Z,103296.63
2023-02-11T06:32:49.829Z,103302.38
2023-02-11T06:35:16.568Z,103307.06
2023-02-11T06:37:43.319Z,103298.84
2023-02-11T06:40:11.326Z,103290.88
2023-02-11T06:42:41.125Z,103293.34
2023-02-11T06:45:11.124Z,103302.69
2023-02-11T06:47:38.045Z,103299.94
2023-02-11T06:50:05.903Z,103308.69
2023-02-11T06:52:33.514Z,103318.03
2023-02-11T06:55:00.396Z,103302.72
2023-02-11T06:57:27.051Z,103308.16
2023-02-11T06:59:53.825Z,103316.91
2023-02-11T07:02:24.361Z,103321.31
2023-02-11T07:04:51.023Z,103319.91
2023-02-11T07:07:18.196Z,103321.28
2023-02-11T07:09:44.959Z,103322.38
2023-02-11T07:12:11.575Z,103322.66
2023-02-11T07:14:38.425Z,103332.53
2023-02-11T07:17:05.300Z,103334.44
2023-02-11T07:19:32.414Z,103337.41
2023-02-11T07:21:59.062Z,103327.84
2023-02-11T07:24:25.703Z,103337.66
2023-02-11T07:26:53.685Z,103333.53
2023-02-11T07:29:20.634Z,103334.63
2023-02-11T07:31:47.368Z,103331.06
2023-02-11T07:34:14.129Z,103342.59
2023-02-11T07:36:43.773Z,103341.16
2023-02-11T07:39:10.481Z,103346.09
2023-02-11T07:41:38.254Z,103355.69
2023-02-11T07:44:05.544Z,103354.56
2023-02-11T07:46:32.829Z,103347.72
2023-02-11T07:48:59.519Z,103360.84
2023-02-11T07:51:31.327Z,103348.72
2023-02-11T07:53:59.838Z,103360.53
2023-02-11T07:56:27.530Z,103359.66
2023-02-11T07:58:54.630Z,103358.28
2023-02-11T08:01:25.522Z,103351.97
2023-02-11T08:03:53.033Z,103371.72
2023-02-11T08:06:21.814Z,103368.66
2023-02-11T08:08:52.647Z,103371.13
2023-02-11T08:11:23.075Z,103371.41
2023-02-11T08:13:50.392Z,103373.28
2023-02-11T08:16:25.954Z,103372.41
2023-02-11T08:18:54.075Z,103381.69
2023-02-11T08:21:21.710Z,103379.78
2023-02-11T08:23:49.864Z,103379.50
2023-02-11T08:26:22.511Z,103382.50
2023-02-11T08:28:51.909Z,103387.69
2023-02-11T08:31:24.689Z,103390.97
2023-02-11T08:33:51.947Z,103395.34
2023-02-11T08:36:21.612Z,103397.22
2023-02-11T08:38:48.444Z,103402.47
2023-02-11T08:41:16.111Z,103396.22
2023-02-11T08:43:44.206Z,103409.59
2023-02-11T08:46:20.818Z,103405.16
2023-02-11T08:48:48.205Z,103408.47
2023-02-11T08:51:22.391Z,103412.31
2023-02-11T08:53:52.391Z,103406.81
2023-02-11T08:56:20.734Z,103410.13
2023-02-11T08:58:47.788Z,103402.97
2023-02-11T09:01:27.266Z,103403.78
2023-02-11T09:03:54.335Z,103404.09
2023-02-11T09:06:22.631Z,103407.91
2023-02-11T09:08:52.408Z,103405.16
2023-02-11T09:11:22.945Z,103413.69
2023-02-11T09:13:54.518Z,103411.19
2023-02-11T09:16:30.408Z,103415.34
2023-02-11T09:18:58.824Z,103401.03
2023-02-11T09:21:26.090Z,103401.47
2023-02-11T09:23:53.096Z,103410.81
2023-02-11T09:26:25.160Z,103408.28
2023-02-11T09:28:52.166Z,103407.47
2023-02-11T09:31:22.500Z,103415.97
2023-02-11T09:33:51.427Z,103413.47
2023-02-11T09:36:25.430Z,103408.50
2023-02-11T09:38:52.910Z,103414.72
2023-02-11T09:41:44.524Z,103429.72
2023-02-11T09:44:28.801Z,103419.88
2023-02-11T09:47:01.539Z,103424.03
2023-02-11T09:49:53.727Z,103414.06
2023-02-11T09:52:20.358Z,103410.47
2023-02-11T09:54:56.324Z,103417.59
2023-02-11T09:57:29.160Z,103423.88
2023-02-11T09:59:57.767Z,103426.56
2023-02-11T10:02:45.051Z,103435.13
2023-02-11T10:05:47.783Z,103431.50
2023-02-11T10:08:20.432Z,103424.31
2023-02-11T10:10:55.675Z,103420.72
2023-02-11T10:13:45.127Z,103412.44
2023-02-11T10:16:23.369Z,103435.84
2023-02-11T10:19:39.749Z,103442.59
2023-02-11T10:22:23.044Z,103441.16
2023-02-11T10:25:03.064Z,103436.09
2023-02-11T10:27:33.292Z,103418.41
2023-02-11T10:30:16.131Z,103426.72
2023-02-11T10:32:49.066Z,103429.78
2023-02-11T10:35:21.581Z,103437.75
2023-02-11T10:37:48.886Z,103439.31
2023-02-11T10:40:22.151Z,103442.34
2023-02-11T10:42:55.705Z,103440.91
2023-02-11T10:45:28.380Z,103446.09
2023-02-11T10:47:55.463Z,103441.50
2023-02-11T10:50:27.317Z,103444.00
2023-02-11T10:53:17.634Z,103438.66
2023-02-11T10:55:54.312Z,103447.19
2023-02-11T10:58:30.828Z,103457.75
2023-02-11T11:01:00.164Z,103460.25
2023-02-11T11:03:32.261Z,103462.22
2023-02-11T11:06:02.183Z,103460.75
2023-02-11T11:08:48.592Z,103450.63
2023-02-11T11:11:24.114Z,103456.53
2023-02-11T11:13:53.708Z,103457.16
2023-02-11T11:16:25.372Z,103448.81
2023-02-11T11:19:08.394Z,103454.81
2023-02-11T11:22:01.364Z,103450.91
2023-02-11T11:24:45.373Z,103461.69
2023-02-11T11:27:19.633Z,103447.25
2023-02-11T11:29:52.987Z,103454.13
2023-02-11T11:32:32.764Z,103444.66
2023-02-11T11:35:08.503Z,103444.28
2023-02-11T11:37:37.200Z,103446.50
2023-02-11T11:40:16.049Z,103446.94
2023-02-11T11:42:43.230Z,103447.63
2023-02-11T11:45:10.196Z,103447.69
2023-02-11T11:47:52.617Z,103451.88
2023-02-11T11:50:33.894Z,103456.19
2023-02-11T11:53:21.559Z,103448.00
2023-02-11T11:56:04.932Z,103450.84
2023-02-11T11:58:32.402Z,103442.56
2023-02-11T12:01:48.077Z,103451.81
2023-02-11T12:04:26.888Z,103443.53
2023-02-11T12:07:14.343Z,103451.66
2023-02-11T12:10:08.692Z,103453.16
2023-02-11T12:12:57.357Z,103460.88
2023-02-11T12:15:36.664Z,103457.97
2023-02-11T12:18:18.033Z,103461.09
2023-02-11T12:20:47.727Z,103468.47
2023-02-11T12:23:33.261Z,103466.22
2023-02-11T12:26:23.310Z,103467.06
2023-02-11T12:29:06.250Z,103459.31
2023-02-11T12:31:47.012Z,103455.00
2023-02-11T12:34:29.264Z,103459.22
2023-02-11T12:37:01.355Z,103457.53
2023-02-11T12:39:57.162Z,103456.81
2023-02-11T12:43:02.807Z,103462.88
2023-02-11T12:45:38.252Z,103456.59
2023-02-11T12:48:23.018Z,103454.84
2023-02-11T12:51:21.089Z,103457.31
2023-02-11T12:54:05.299Z,103461.31
2023-02-11T12:56:41.341Z,103462.28
2023-02-11T12:59:17.947Z,103441.47
2023-02-11T13:01:45.261Z,103457.81
2023-02-11T13:04:25.628Z,103444.13
2023-02-11T13:06:57.820Z,103446.38
2023-02-11T13:09:49.116Z,103439.41
2023-02-11T13:12:35.609Z,103442.41
2023-02-11T13:15:09.906Z,103439.22
2023-02-11T13:18:03.003Z,103438.84
2023-02-11T13:20:45.472Z,103433.31
2023-02-11T13:23:12.057Z,103439.16
2023-02-11T13:25:54.990Z,103432.06
2023-02-11T13:28:32.626Z,103429.22
2023-02-11T13:31:04.097Z,103417.44
2023-02-11T13:33:33.349Z,103423.91
2023-02-11T13:36:00.703Z,103408.19
2023-02-11T13:38:30.728Z,103412.66
2023-02-11T13:41:06.937Z,103419.25
2023-02-11T13:43:35.740Z,103416.88
2023-02-11T13:46:12.434Z,103424.03
2023-02-11T13:48:46.797Z,103420.88
2023-02-11T13:51:17.634Z,103420.00
2023-02-11T13:54:03.715Z,103418.31
2023-02-11T13:56:32.426Z,103423.81
2023-02-11T13:59:04.608Z,103417.50
2023-02-11T14:02:12.527Z,103422.50
2023-02-11T14:05:22.974Z,103418.72
2023-02-11T14:08:29.495Z,103418.72
2023-02-11T14:11:03.039Z,103404.91
2023-02-11T14:13:31.121Z,103419.03
2023-02-11T14:16:13.603Z,103421.59
2023-02-11T14:18:52.409Z,103423.63
2023-02-11T14:21:29.061Z,103431.44
2023-02-11T14:24:01.495Z,103422.81
2023-02-11T14:26:49.731Z,103426.00
2023-02-11T14:29:24.617Z,103429.75
2023-02-11T14:31:54.382Z,103430.28
2023-02-11T14:34:26.825Z,103429.03
2023-02-11T14:37:23.730Z,103438.16
2023-02-11T14:39:59.453Z,103435.41
2023-02-11T14:42:29.275Z,103435.09
2023-02-11T14:45:03.322Z,103419.25
2023-02-11T14:47:43.447Z,103434.16
2023-02-11T14:50:22.461Z,103437.84
2023-02-11T14:52:50.295Z,103436.22
2023-02-11T14:55:29.582Z,103432.41
2023-02-11T14:58:15.078Z,103427.06
2023-02-11T15:01:01.847Z,103431.19
2023-02-11T15:03:41.636Z,103431.19
2023-02-11T15:06:36.818Z,103432.53
2023-02-11T15:09:16.758Z,103428.13
2023-02-11T15:11:46.496Z,103436.41
2023-02-11T15:14:30.078Z,103431.31
2023-02-11T15:17:01.356Z,103431.28
2023-02-11T15:19:35.846Z,103436.41
2023-02-11T15:22:05.885Z,103442.44
2023-02-11T15:24:35.605Z,103443.84
2023-02-11T15:27:12.823Z,103449.09
2023-02-11T15:29:50.055Z,103449.69
2023-02-11T15:32:20.324Z,103451.00
2023-02-11T15:34:48.748Z,103452.41
2023-02-11T15:37:25.953Z,103465.31
2023-02-11T15:39:54.080Z,103457.84
2023-02-11T15:42:25.080Z,103458.88
2023-02-11T15:45:13.827Z,103470.00
2023-02-11T15:47:48.813Z,103468.44
2023-02-11T15:50:30.963Z,103466.22
2023-02-11T15:53:03.235Z,103459.22
2023-02-11T15:55:30.358Z,103457.72
2023-02-11T15:58:02.866Z,103462.25
2023-02-11T16:00:36.337Z,103459.88
2023-02-11T16:03:03.551Z,103465.41
2023-02-11T16:05:34.395Z,103473.16
2023-02-11T16:08:12.561Z,103475.69
2023-02-11T16:10:39.433Z,103473.34
2023-02-11T16:13:06.179Z,103483.25
2023-02-11T16:16:02.467Z,103484.94
2023-02-11T16:18:38.755Z,103485.19
2023-02-11T16:21:16.012Z,103481.81
2023-02-11T16:23:43.684Z,103490.91
2023-02-11T16:26:23.005Z,103491.06
2023-02-11T16:28:53.440Z,103488.69
2023-02-11T16:31:20.545Z,103487.63
2023-02-11T16:33:47.708Z,103479.50
2023-02-11T16:36:19.123Z,103489.50
2023-02-11T16:38:45.731Z,103491.28
2023-02-11T16:41:12.848Z,103495.97
2023-02-11T16:43:40.217Z,103491.97
2023-02-11T16:46:06.945Z,103502.03
2023-02-11T16:48:33.906Z,103503.22
2023-02-11T16:51:01.016Z,103492.84
2023-02-11T16:53:27.749Z,103512.75
2023-02-11T16:55:54.772Z,103506.63
2023-02-11T16:58:21.660Z,103501.44
2023-02-11T17:00:48.966Z,103495.59
2023-02-11T17:03:21.872Z,103507.94
2023-02-11T17:05:55.462Z,103520.44
2023-02-11T17:08:22.966Z,103524.69
2023-02-11T17:10:50.421Z,103519.63
2023-02-11T17:13:17.299Z,103523.34
2023-02-11T17:15:44.117Z,103526.09
2023-02-11T17:18:14.594Z,103527.34
2023-02-11T17:20:42.226Z,103532.88
2023-02-11T17:23:09.206Z,103541.88
2023-02-11T17:25:39.322Z,103534.13
2023-02-11T17:28:06.585Z,103541.41
2023-02-11T17:30:33.286Z,103538.38
2023-02-11T17:33:00.172Z,103542.53
2023-02-11T17:35:27.065Z,103545.22
2023-02-11T17:37:54.180Z,103550.44
2023-02-11T17:40:22.333Z,103547.88
2023-02-11T17:42:49.098Z,103538.53
2023-02-11T17:45:15.947Z,103551.22
2023-02-11T17:47:42.757Z,103555.38
2023-02-11T17:50:10.438Z,103551.63
2023-02-11T17:52:37.985Z,103566.75
2023-02-11T17:55:05.880Z,103560.94
2023-02-11T17:57:32.889Z,103567.22
2023-02-11T17:59:59.506Z,103564.81
2023-02-11T18:02:27.112Z,103564.19
2023-02-11T18:04:55.592Z,103557.53
2023-02-11T18:07:22.255Z,103563.81
2023-02-11T18:09:48.953Z,103571.91
2023-02-11T18:12:18.022Z,103560.91
2023-02-11T18:14:45.155Z,103558.13
2023-02-11T18:17:11.899Z,103568.53
2023-02-11T18:19:38.779Z,103569.88
2023-02-11T18:22:05.664Z,103570.56
2023-02-11T18:24:32.378Z,103567.44
2023-02-11T18:26:59.132Z,103567.28
2023-02-11T18:29:25.887Z,103585.66
2023-02-11T18:31:55.908Z,103574.03
2023-02-11T18:34:22.828Z,103586.25
2023-02-11T18:36:50.169Z,103587.28
2023-02-11T18:39:18.660Z,103577.56
2023-02-11T18:41:46.007Z,103579.78
2023-02-11T18:44:14.250Z,103579.78
2023-02-11T18:46:41.304Z,103584.84
2023-02-11T18:49:09.909Z,103593.38
2023-02-11T18:51:36.953Z,103585.53
2023-02-11T18:54:03.782Z,103589.56
2023-02-11T18:56:30.533Z,103587.00
2023-02-11T18:58:58.588Z,103596.03
2023-02-11T19:01:27.467Z,103593.97
2023-02-11T19:03:56.487Z,103600.91
2023-02-11T19:06:27.702Z,103597.22
2023-02-11T19:08:59.516Z,103600.47
2023-02-11T19:11:47.269Z,103593.03
2023-02-11T19:14:15.686Z,103591.69
2023-02-11T19:16:43.528Z,103589.28
2023-02-11T19:19:10.509Z,103586.66
2023-02-11T19:21:37.260Z,103600.88
2023-02-11T19:24:08.017Z,103598.66
2023-02-11T19:26:35.186Z,103604.34
2023-02-11T19:29:02.427Z,103606.06
2023-02-11T19:31:32.242Z,103604.75
2023-02-11T19:33:59.786Z,103601.59
2023-02-11T19:36:26.516Z,103605.25
2023-02-11T19:38:53.849Z,103611.59
2023-02-11T19:41:23.101Z,103612.97
2023-02-11T19:43:53.026Z,103618.00
2023-02-11T19:46:21.318Z,103610.75
2023-02-11T19:48:49.282Z,103601.13
2023-02-11T19:51:16.384Z,103615.94
2023-02-11T19:53:44.032Z,103609.09
2023-02-11T19:56:11.531Z,103605.34
2023-02-11T19:58:39.086Z,103613.25
2023-02-11T20:01:08.555Z,103619.03
2023-02-11T20:03:35.914Z,103628.03
2023-02-11T20:06:13.204Z,103627.69
2023-02-11T20:08:40.539Z,103626.00
2023-02-11T20:11:16.601Z,103643.50
2023-02-11T20:13:44.224Z,103644.41
2023-02-11T20:16:19.038Z,103648.91
2023-02-11T20:18:48.119Z,103653.56
2023-02-11T20:21:19.973Z,103652.06
2023-02-11T20:23:48.734Z,103649.31
2023-02-11T20:26:30.318Z,103657.34
2023-02-11T20:28:58.912Z,103665.63
2023-02-11T20:31:25.566Z,103664.00
2023-02-11T20:33:52.474Z,103669.06
2023-02-11T20:36:21.962Z,103664.75
2023-02-11T20:38:49.911Z,103668.69
2023-02-11T20:41:22.662Z,103677.25
2023-02-11T20:43:53.288Z,103680.41
2023-02-11T20:46:23.216Z,103686.56
2023-02-11T20:48:50.907Z,103689.91
2023-02-11T20:51:21.339Z,103695.44
2023-02-11T20:53:51.099Z,103695.91
2023-02-11T20:56:23.597Z,103698.03
2023-02-11T20:58:50.947Z,103702.34
2023-02-11T21:01:19.162Z,103703.81
2023-02-11T21:03:52.108Z,103696.59
2023-02-11T21:06:20.493Z,103699.19
2023-02-11T21:08:47.353Z,103698.19
2023-02-11T21:11:14.397Z,103705.31
2023-02-11T21:13:42.752Z,103707.16
2023-02-11T21:16:15.709Z,103714.22
2023-02-11T21:18:43.017Z,103715.84
2023-02-11T21:21:09.972Z,103716.06
2023-02-11T21:23:38.135Z,103726.19
2023-02-11T21:26:05.141Z,103719.09
2023-02-11T21:28:32.019Z,103726.66
2023-02-11T21:30:59.467Z,103713.66
2023-02-11T21:33:27.436Z,103720.66
2023-02-11T21:35:58.655Z,103720.47
2023-02-11T21:38:26.146Z,103740.03
2023-02-11T21:40:53.139Z,103737.38
2023-02-11T21:43:20.690Z,103726.41
2023-02-11T21:45:49.936Z,103732.84
2023-02-11T21:48:17.864Z,103748.25
2023-02-11T21:50:46.750Z,103735.50
2023-02-11T21:53:14.775Z,103741.94
2023-02-11T21:55:41.640Z,103733.59
2023-02-11T21:58:08.453Z,103752.72
2023-02-11T22:00:35.196Z,103735.78
2023-02-11T22:03:01.940Z,103744.38
2023-02-11T22:05:28.622Z,103734.72
2023-02-11T22:07:55.377Z,103748.97
2023-02-11T22:10:24.100Z,103753.09
2023-02-11T22:12:50.843Z,103763.03
2023-02-11T22:15:17.677Z,103764.50
2023-02-11T22:17:44.337Z,103754.47
2023-02-11T22:20:11.312Z,103751.06
2023-02-11T22:22:39.077Z,103765.16
2023-02-11T22:25:05.922Z,103761.84
2023-02-11T22:27:32.506Z,103761.19
2023-02-11T22:29:59.321Z,103757.28
2023-02-11T22:32:26.085Z,103757.97
2023-02-11T22:34:53.484Z,103760.13
2023-02-11T22:37:20.880Z,103760.66
2023-02-11T22:39:47.735Z,103751.78
2023-02-11T22:42:14.404Z,103759.16
2023-02-11T22:44:41.320Z,103752.22
2023-02-11T22:47:08.072Z,103752.97
2023-02-11T22:49:35.752Z,103748.47
2023-02-11T22:52:03.943Z,103748.91
2023-02-11T22:54:31.451Z,103752.69
2023-02-11T22:56:58.148Z,103747.66
2023-02-11T22:59:25.615Z,103745.22
2023-02-11T23:01:52.452Z,103751.78
2023-02-11T23:04:19.554Z,103758.91
2023-02-11T23:06:47.671Z,103755.81
2023-02-11T23:09:14.337Z,103756.63
2023-02-11T23:11:44.475Z,103758.72
2023-02-11T23:14:12.319Z,103764.03
2023-02-11T23:16:39.186Z,103770.44
2023-02-11T23:19:09.081Z,103772.47
2023-02-11T23:21:38.279Z,103777.50
2023-02-11T23:24:12.288Z,103774.75
2023-02-11T23:26:40.873Z,103775.13
2023-02-11T23:29:08.397Z,103777.50
2023-02-11T23:31:39.808Z,103779.81
2023-02-11T23:34:08.189Z,103776.44
2023-02-11T23:36:34.895Z,103777.81
2023-02-11T23:39:01.926Z,103756.19
2023-02-11T23:41:28.710Z,103765.16
2023-02-11T23:43:57.235Z,103775.44
2023-02-11T23:46:25.195Z,103778.53
2023-02-11T23:48:52.417Z,103777.97
2023-02-11T23:51:19.476Z,103771.22
2023-02-11T23:53:46.570Z,103782.25
2023-02-11T23:56:18.970Z,103781.34
2023-02-11T23:58:48.843Z,103769.78
